sensor_id;sensor_type;location;lat;lon;timestamp;P1;durP1;ratioP1;P2;durP2;ratioP2
22363;SDS011;11349;53.412;-1.328;2024-03-02T00:00:07;10.05;;;3.92;;
22363;SDS011;11349;53.412;-1.328;2024-03-02T00:02:44;8.65;;;3.88;;
22363;SDS011;11349;53.412;-1.328;2024-03-02T00:05:11;9.43;;;3.45;;
22363;SDS011;11349;53.412;-1.328;2024-03-02T00:07:41;10.75;;;4.03;;
22363;SDS011;11349;53.412;-1.328;2024-03-02T00:10:08;12.45;;;4.30;;
22363;SDS011;11349;53.412;-1.328;2024-03-02T00:12:45;8.55;;;3.72;;
22363;SDS011;11349;53.412;-1.328;2024-03-02T00:15:23;13.00;;;4.20;;
22363;SDS011;11349;53.412;-1.328;2024-03-02T00:18:34;14.30;;;5.78;;
22363;SDS011;11349;53.412;-1.328;2024-03-02T00:20:59;17.70;;;8.35;;
22363;SDS011;11349;53.412;-1.328;2024-03-02T00:23:29;16.95;;;8.45;;
22363;SDS011;11349;53.412;-1.328;2024-03-02T00:25:58;20.73;;;8.77;;
22363;SDS011;11349;53.412;-1.328;2024-03-02T00:31:03;20.05;;;10.35;;
22363;SDS011;11349;53.412;-1.328;2024-03-02T00:33:41;17.90;;;8.00;;
22363;SDS011;11349;53.412;-1.328;2024-03-02T00:36:08;14.88;;;7.68;;
22363;SDS011;11349;53.412;-1.328;2024-03-02T00:38:44;12.73;;;6.43;;
22363;SDS011;11349;53.412;-1.328;2024-03-02T00:41:30;12.95;;;6.68;;
22363;SDS011;11349;53.412;-1.328;2024-03-02T00:43:57;11.23;;;6.10;;
22363;SDS011;11349;53.412;-1.328;2024-03-02T00:46:23;14.80;;;6.82;;
22363;SDS011;11349;53.412;-1.328;2024-03-02T00:48:53;10.05;;;6.05;;
22363;SDS011;11349;53.412;-1.328;2024-03-02T00:51:21;13.05;;;5.72;;
22363;SDS011;11349;53.412;-1.328;2024-03-02T00:53:51;9.80;;;5.80;;
22363;SDS011;11349;53.412;-1.328;2024-03-02T00:56:20;10.38;;;4.28;;
22363;SDS011;11349;53.412;-1.328;2024-03-02T00:58:46;10.00;;;4.30;;
22363;SDS011;11349;53.412;-1.328;2024-03-02T01:01:12;6.72;;;3.28;;
22363;SDS011;11349;53.412;-1.328;2024-03-02T01:03:38;7.40;;;2.72;;
22363;SDS011;11349;53.412;-1.328;2024-03-02T01:06:04;9.32;;;3.00;;
22363;SDS011;11349;53.412;-1.328;2024-03-02T01:08:30;4.75;;;2.60;;
22363;SDS011;11349;53.412;-1.328;2024-03-02T01:10:56;7.82;;;2.60;;
22363;SDS011;11349;53.412;-1.328;2024-03-02T01:13:22;8.90;;;2.60;;
22363;SDS011;11349;53.412;-1.328;2024-03-02T01:15:48;7.40;;;2.40;;
22363;SDS011;11349;53.412;-1.328;2024-03-02T01:18:14;5.50;;;2.30;;
22363;SDS011;11349;53.412;-1.328;2024-03-02T01:20:40;6.78;;;2.30;;
22363;SDS011;11349;53.412;-1.328;2024-03-02T01:23:06;12.60;;;3.55;;
22363;SDS011;11349;53.412;-1.328;2024-03-02T01:25:32;5.47;;;2.83;;
22363;SDS011;11349;53.412;-1.328;2024-03-02T01:27:57;5.80;;;2.55;;
22363;SDS011;11349;53.412;-1.328;2024-03-02T01:30:23;8.90;;;2.85;;
22363;SDS011;11349;53.412;-1.328;2024-03-02T01:32:49;11.40;;;2.67;;
22363;SDS011;11349;53.412;-1.328;2024-03-02T01:35:14;7.25;;;2.28;;
22363;SDS011;11349;53.412;-1.328;2024-03-02T01:37:40;7.13;;;2.80;;
22363;SDS011;11349;53.412;-1.328;2024-03-02T01:40:06;5.82;;;2.95;;
22363;SDS011;11349;53.412;-1.328;2024-03-02T01:42:37;8.93;;;2.83;;
22363;SDS011;11349;53.412;-1.328;2024-03-02T01:45:04;8.00;;;2.95;;
22363;SDS011;11349;53.412;-1.328;2024-03-02T01:47:31;7.00;;;3.08;;
22363;SDS011;11349;53.412;-1.328;2024-03-02T01:49:57;9.55;;;2.92;;
22363;SDS011;11349;53.412;-1.328;2024-03-02T01:52:24;8.32;;;3.33;;
22363;SDS011;11349;53.412;-1.328;2024-03-02T01:54:50;8.57;;;2.63;;
22363;SDS011;11349;53.412;-1.328;2024-03-02T01:57:15;8.45;;;3.30;;
22363;SDS011;11349;53.412;-1.328;2024-03-02T01:59:41;9.27;;;2.90;;
22363;SDS011;11349;53.412;-1.328;2024-03-02T02:02:07;7.38;;;2.80;;
22363;SDS011;11349;53.412;-1.328;2024-03-02T02:04:33;5.95;;;2.65;;
22363;SDS011;11349;53.412;-1.328;2024-03-02T02:06:59;8.45;;;3.17;;
22363;SDS011;11349;53.412;-1.328;2024-03-02T02:09:25;5.55;;;2.53;;
22363;SDS011;11349;53.412;-1.328;2024-03-02T02:11:51;7.28;;;2.85;;
22363;SDS011;11349;53.412;-1.328;2024-03-02T02:14:17;5.53;;;2.83;;
22363;SDS011;11349;53.412;-1.328;2024-03-02T02:16:43;7.55;;;3.38;;
22363;SDS011;11349;53.412;-1.328;2024-03-02T02:19:09;6.90;;;3.05;;
22363;SDS011;11349;53.412;-1.328;2024-03-02T02:21:35;7.28;;;2.90;;
22363;SDS011;11349;53.412;-1.328;2024-03-02T02:24:01;7.00;;;3.45;;
22363;SDS011;11349;53.412;-1.328;2024-03-02T02:26:29;6.53;;;3.05;;
22363;SDS011;11349;53.412;-1.328;2024-03-02T02:28:54;9.18;;;3.40;;
22363;SDS011;11349;53.412;-1.328;2024-03-02T02:31:20;10.50;;;3.83;;
22363;SDS011;11349;53.412;-1.328;2024-03-02T02:33:46;8.85;;;3.78;;
22363;SDS011;11349;53.412;-1.328;2024-03-02T02:36:11;10.25;;;4.63;;
22363;SDS011;11349;53.412;-1.328;2024-03-02T02:38:42;7.93;;;3.60;;
22363;SDS011;11349;53.412;-1.328;2024-03-02T02:41:11;9.63;;;3.80;;
22363;SDS011;11349;53.412;-1.328;2024-03-02T02:43:38;12.20;;;3.83;;
22363;SDS011;11349;53.412;-1.328;2024-03-02T02:46:05;7.22;;;3.78;;
22363;SDS011;11349;53.412;-1.328;2024-03-02T02:48:33;11.55;;;4.15;;
22363;SDS011;11349;53.412;-1.328;2024-03-02T02:51:00;11.02;;;4.45;;
22363;SDS011;11349;53.412;-1.328;2024-03-02T02:53:26;8.95;;;4.57;;
22363;SDS011;11349;53.412;-1.328;2024-03-02T02:55:51;10.70;;;4.78;;
22363;SDS011;11349;53.412;-1.328;2024-03-02T02:58:17;11.00;;;4.50;;
22363;SDS011;11349;53.412;-1.328;2024-03-02T03:00:43;14.38;;;5.18;;
22363;SDS011;11349;53.412;-1.328;2024-03-02T03:03:08;11.93;;;6.40;;
22363;SDS011;11349;53.412;-1.328;2024-03-02T03:05:34;13.02;;;4.97;;
22363;SDS011;11349;53.412;-1.328;2024-03-02T03:08:00;11.52;;;5.10;;
22363;SDS011;11349;53.412;-1.328;2024-03-02T03:10:25;8.38;;;4.85;;
22363;SDS011;11349;53.412;-1.328;2024-03-02T03:12:52;9.60;;;5.40;;
22363;SDS011;11349;53.412;-1.328;2024-03-02T03:15:18;12.85;;;6.15;;
22363;SDS011;11349;53.412;-1.328;2024-03-02T03:17:44;15.07;;;7.00;;
22363;SDS011;11349;53.412;-1.328;2024-03-02T03:20:11;13.98;;;7.85;;
22363;SDS011;11349;53.412;-1.328;2024-03-02T03:22:37;16.38;;;7.07;;
22363;SDS011;11349;53.412;-1.328;2024-03-02T03:25:04;11.10;;;7.47;;
22363;SDS011;11349;53.412;-1.328;2024-03-02T03:27:30;14.77;;;7.32;;
22363;SDS011;11349;53.412;-1.328;2024-03-02T03:29:56;12.25;;;7.38;;
22363;SDS011;11349;53.412;-1.328;2024-03-02T03:32:21;16.73;;;8.43;;
22363;SDS011;11349;53.412;-1.328;2024-03-02T03:34:47;16.77;;;7.75;;
22363;SDS011;11349;53.412;-1.328;2024-03-02T03:37:13;12.88;;;7.22;;
22363;SDS011;11349;53.412;-1.328;2024-03-02T03:39:40;15.32;;;7.30;;
22363;SDS011;11349;53.412;-1.328;2024-03-02T03:42:06;18.88;;;8.98;;
22363;SDS011;11349;53.412;-1.328;2024-03-02T03:44:31;13.48;;;7.55;;
22363;SDS011;11349;53.412;-1.328;2024-03-02T03:46:58;14.23;;;8.00;;
22363;SDS011;11349;53.412;-1.328;2024-03-02T03:49:25;17.65;;;8.80;;
22363;SDS011;11349;53.412;-1.328;2024-03-02T03:51:51;11.70;;;7.80;;
22363;SDS011;11349;53.412;-1.328;2024-03-02T03:54:17;17.00;;;9.23;;
22363;SDS011;11349;53.412;-1.328;2024-03-02T03:56:43;14.90;;;8.32;;
22363;SDS011;11349;53.412;-1.328;2024-03-02T03:59:08;12.90;;;7.80;;
22363;SDS011;11349;53.412;-1.328;2024-03-02T04:01:34;14.70;;;8.13;;
22363;SDS011;11349;53.412;-1.328;2024-03-02T04:04:00;13.57;;;8.05;;
22363;SDS011;11349;53.412;-1.328;2024-03-02T04:06:28;14.70;;;8.10;;
22363;SDS011;11349;53.412;-1.328;2024-03-02T04:08:54;17.60;;;8.38;;
22363;SDS011;11349;53.412;-1.328;2024-03-02T04:11:20;18.73;;;9.32;;
22363;SDS011;11349;53.412;-1.328;2024-03-02T04:13:45;13.55;;;8.65;;
22363;SDS011;11349;53.412;-1.328;2024-03-02T04:16:11;15.27;;;8.88;;
22363;SDS011;11349;53.412;-1.328;2024-03-02T04:18:37;13.20;;;8.07;;
22363;SDS011;11349;53.412;-1.328;2024-03-02T04:21:04;14.00;;;8.40;;
22363;SDS011;11349;53.412;-1.328;2024-03-02T04:23:30;13.32;;;9.43;;
22363;SDS011;11349;53.412;-1.328;2024-03-02T04:25:56;15.98;;;9.60;;
22363;SDS011;11349;53.412;-1.328;2024-03-02T04:28:21;17.83;;;9.68;;
22363;SDS011;11349;53.412;-1.328;2024-03-02T04:30:47;19.77;;;9.70;;
22363;SDS011;11349;53.412;-1.328;2024-03-02T04:33:13;19.83;;;11.05;;
22363;SDS011;11349;53.412;-1.328;2024-03-02T04:35:38;20.63;;;10.55;;
22363;SDS011;11349;53.412;-1.328;2024-03-02T04:38:04;16.40;;;10.65;;
22363;SDS011;11349;53.412;-1.328;2024-03-02T04:40:30;19.88;;;11.52;;
22363;SDS011;11349;53.412;-1.328;2024-03-02T04:42:57;17.10;;;11.00;;
22363;SDS011;11349;53.412;-1.328;2024-03-02T04:45:24;18.88;;;10.95;;
22363;SDS011;11349;53.412;-1.328;2024-03-02T04:47:50;16.73;;;11.70;;
22363;SDS011;11349;53.412;-1.328;2024-03-02T04:50:15;16.10;;;10.77;;
22363;SDS011;11349;53.412;-1.328;2024-03-02T04:52:41;16.92;;;10.77;;
22363;SDS011;11349;53.412;-1.328;2024-03-02T04:55:07;20.08;;;10.88;;
22363;SDS011;11349;53.412;-1.328;2024-03-02T04:57:44;18.98;;;11.18;;
22363;SDS011;11349;53.412;-1.328;2024-03-02T05:00:11;15.75;;;9.82;;
22363;SDS011;11349;53.412;-1.328;2024-03-02T05:02:37;14.50;;;10.25;;
22363;SDS011;11349;53.412;-1.328;2024-03-02T05:05:03;14.40;;;9.80;;
22363;SDS011;11349;53.412;-1.328;2024-03-02T05:07:29;16.75;;;9.75;;
22363;SDS011;11349;53.412;-1.328;2024-03-02T05:09:55;18.52;;;10.25;;
22363;SDS011;11349;53.412;-1.328;2024-03-02T05:12:21;23.50;;;11.20;;
22363;SDS011;11349;53.412;-1.328;2024-03-02T05:15:15;25.02;;;12.43;;
22363;SDS011;11349;53.412;-1.328;2024-03-02T05:17:41;24.65;;;12.82;;
22363;SDS011;11349;53.412;-1.328;2024-03-02T05:20:10;28.38;;;13.77;;
22363;SDS011;11349;53.412;-1.328;2024-03-02T05:22:37;22.27;;;13.07;;
22363;SDS011;11349;53.412;-1.328;2024-03-02T05:25:03;23.98;;;13.10;;
22363;SDS011;11349;53.412;-1.328;2024-03-02T05:27:29;26.10;;;13.88;;
22363;SDS011;11349;53.412;-1.328;2024-03-02T05:29:56;26.02;;;13.77;;
22363;SDS011;11349;53.412;-1.328;2024-03-02T05:32:23;20.23;;;12.48;;
22363;SDS011;11349;53.412;-1.328;2024-03-02T05:34:48;23.35;;;13.57;;
22363;SDS011;11349;53.412;-1.328;2024-03-02T05:37:16;22.38;;;11.38;;
22363;SDS011;11349;53.412;-1.328;2024-03-02T05:39:41;23.77;;;12.20;;
22363;SDS011;11349;53.412;-1.328;2024-03-02T05:42:08;27.17;;;12.98;;
22363;SDS011;11349;53.412;-1.328;2024-03-02T05:44:35;23.77;;;13.15;;
22363;SDS011;11349;53.412;-1.328;2024-03-02T05:47:01;23.50;;;12.77;;
22363;SDS011;11349;53.412;-1.328;2024-03-02T05:49:26;24.67;;;14.10;;
22363;SDS011;11349;53.412;-1.328;2024-03-02T05:51:52;22.98;;;12.95;;
22363;SDS011;11349;53.412;-1.328;2024-03-02T05:54:18;23.80;;;13.85;;
22363;SDS011;11349;53.412;-1.328;2024-03-02T05:56:44;23.52;;;13.85;;
22363;SDS011;11349;53.412;-1.328;2024-03-02T05:59:09;28.25;;;13.90;;
22363;SDS011;11349;53.412;-1.328;2024-03-02T06:01:47;24.60;;;13.40;;
22363;SDS011;11349;53.412;-1.328;2024-03-02T06:04:15;26.45;;;15.05;;
22363;SDS011;11349;53.412;-1.328;2024-03-02T06:06:41;31.60;;;15.38;;
22363;SDS011;11349;53.412;-1.328;2024-03-02T06:09:07;26.27;;;15.10;;
22363;SDS011;11349;53.412;-1.328;2024-03-02T06:11:33;34.53;;;15.85;;
22363;SDS011;11349;53.412;-1.328;2024-03-02T06:13:59;27.75;;;15.65;;
22363;SDS011;11349;53.412;-1.328;2024-03-02T06:16:25;32.95;;;16.13;;
22363;SDS011;11349;53.412;-1.328;2024-03-02T06:18:50;27.50;;;17.25;;
22363;SDS011;11349;53.412;-1.328;2024-03-02T06:21:16;31.58;;;16.33;;
22363;SDS011;11349;53.412;-1.328;2024-03-02T06:23:43;33.03;;;17.55;;
22363;SDS011;11349;53.412;-1.328;2024-03-02T06:26:09;34.08;;;16.40;;
22363;SDS011;11349;53.412;-1.328;2024-03-02T06:28:35;31.33;;;16.88;;
22363;SDS011;11349;53.412;-1.328;2024-03-02T06:31:01;32.78;;;16.35;;
22363;SDS011;11349;53.412;-1.328;2024-03-02T06:33:27;27.55;;;16.05;;
22363;SDS011;11349;53.412;-1.328;2024-03-02T06:35:53;30.00;;;16.58;;
22363;SDS011;11349;53.412;-1.328;2024-03-02T06:38:19;30.20;;;16.70;;
22363;SDS011;11349;53.412;-1.328;2024-03-02T06:40:45;34.00;;;17.42;;
22363;SDS011;11349;53.412;-1.328;2024-03-02T06:43:11;31.63;;;16.90;;
22363;SDS011;11349;53.412;-1.328;2024-03-02T06:45:36;32.17;;;18.15;;
22363;SDS011;11349;53.412;-1.328;2024-03-02T06:48:03;27.13;;;17.35;;
22363;SDS011;11349;53.412;-1.328;2024-03-02T06:50:28;30.17;;;16.65;;
22363;SDS011;11349;53.412;-1.328;2024-03-02T06:52:54;32.20;;;16.70;;
22363;SDS011;11349;53.412;-1.328;2024-03-02T06:55:23;31.98;;;17.77;;
22363;SDS011;11349;53.412;-1.328;2024-03-02T06:57:50;34.30;;;18.27;;
22363;SDS011;11349;53.412;-1.328;2024-03-02T07:00:17;31.77;;;18.38;;
22363;SDS011;11349;53.412;-1.328;2024-03-02T07:02:43;32.53;;;18.42;;
22363;SDS011;11349;53.412;-1.328;2024-03-02T07:05:09;33.60;;;18.92;;
22363;SDS011;11349;53.412;-1.328;2024-03-02T07:07:35;33.63;;;18.30;;
22363;SDS011;11349;53.412;-1.328;2024-03-02T07:10:02;32.47;;;18.88;;
22363;SDS011;11349;53.412;-1.328;2024-03-02T07:12:28;30.90;;;18.50;;
22363;SDS011;11349;53.412;-1.328;2024-03-02T07:14:54;36.55;;;19.00;;
22363;SDS011;11349;53.412;-1.328;2024-03-02T07:17:29;28.33;;;17.60;;
22363;SDS011;11349;53.412;-1.328;2024-03-02T07:19:55;31.55;;;17.60;;
22363;SDS011;11349;53.412;-1.328;2024-03-02T07:22:22;28.35;;;18.83;;
22363;SDS011;11349;53.412;-1.328;2024-03-02T07:24:51;30.52;;;17.70;;
22363;SDS011;11349;53.412;-1.328;2024-03-02T07:27:17;30.30;;;17.02;;
22363;SDS011;11349;53.412;-1.328;2024-03-02T07:29:43;27.65;;;18.40;;
22363;SDS011;11349;53.412;-1.328;2024-03-02T07:32:09;29.67;;;18.35;;
22363;SDS011;11349;53.412;-1.328;2024-03-02T07:34:35;31.50;;;16.58;;
22363;SDS011;11349;53.412;-1.328;2024-03-02T07:37:02;30.67;;;17.88;;
22363;SDS011;11349;53.412;-1.328;2024-03-02T07:39:28;26.17;;;16.40;;
22363;SDS011;11349;53.412;-1.328;2024-03-02T07:41:54;26.90;;;16.02;;
22363;SDS011;11349;53.412;-1.328;2024-03-02T07:44:21;26.25;;;15.32;;
22363;SDS011;11349;53.412;-1.328;2024-03-02T07:46:47;24.10;;;14.07;;
22363;SDS011;11349;53.412;-1.328;2024-03-02T07:49:16;20.17;;;12.38;;
22363;SDS011;11349;53.412;-1.328;2024-03-02T07:51:45;21.73;;;12.75;;
22363;SDS011;11349;53.412;-1.328;2024-03-02T07:54:11;18.95;;;12.02;;
22363;SDS011;11349;53.412;-1.328;2024-03-02T07:56:36;22.38;;;12.43;;
22363;SDS011;11349;53.412;-1.328;2024-03-02T07:59:02;19.05;;;11.05;;
22363;SDS011;11349;53.412;-1.328;2024-03-02T08:01:31;18.33;;;10.90;;
22363;SDS011;11349;53.412;-1.328;2024-03-02T08:03:58;16.65;;;10.77;;
22363;SDS011;11349;53.412;-1.328;2024-03-02T08:06:25;15.50;;;10.60;;
22363;SDS011;11349;53.412;-1.328;2024-03-02T08:08:54;16.05;;;9.23;;
22363;SDS011;11349;53.412;-1.328;2024-03-02T08:11:21;29.95;;;10.25;;
22363;SDS011;11349;53.412;-1.328;2024-03-02T08:13:47;15.85;;;9.02;;
22363;SDS011;11349;53.412;-1.328;2024-03-02T08:16:13;15.15;;;9.38;;
22363;SDS011;11349;53.412;-1.328;2024-03-02T08:18:40;15.05;;;8.68;;
22363;SDS011;11349;53.412;-1.328;2024-03-02T08:21:06;13.88;;;7.68;;
22363;SDS011;11349;53.412;-1.328;2024-03-02T08:23:34;12.43;;;7.20;;
22363;SDS011;11349;53.412;-1.328;2024-03-02T08:26:00;15.50;;;7.65;;
22363;SDS011;11349;53.412;-1.328;2024-03-02T08:28:26;12.10;;;7.18;;
22363;SDS011;11349;53.412;-1.328;2024-03-02T08:30:52;12.77;;;7.28;;
22363;SDS011;11349;53.412;-1.328;2024-03-02T08:33:17;11.35;;;7.22;;
22363;SDS011;11349;53.412;-1.328;2024-03-02T08:35:43;14.43;;;7.30;;
22363;SDS011;11349;53.412;-1.328;2024-03-02T08:38:09;13.60;;;7.35;;
22363;SDS011;11349;53.412;-1.328;2024-03-02T08:40:35;11.15;;;6.88;;
22363;SDS011;11349;53.412;-1.328;2024-03-02T08:43:00;10.07;;;6.97;;
22363;SDS011;11349;53.412;-1.328;2024-03-02T08:45:26;10.20;;;6.80;;
22363;SDS011;11349;53.412;-1.328;2024-03-02T08:47:52;10.93;;;7.18;;
22363;SDS011;11349;53.412;-1.328;2024-03-02T08:50:18;12.75;;;7.38;;
22363;SDS011;11349;53.412;-1.328;2024-03-02T08:52:43;16.75;;;7.95;;
22363;SDS011;11349;53.412;-1.328;2024-03-02T08:55:09;14.05;;;7.10;;
22363;SDS011;11349;53.412;-1.328;2024-03-02T08:57:36;10.05;;;6.75;;
22363;SDS011;11349;53.412;-1.328;2024-03-02T09:00:02;10.07;;;6.18;;
22363;SDS011;11349;53.412;-1.328;2024-03-02T09:02:30;9.65;;;5.85;;
22363;SDS011;11349;53.412;-1.328;2024-03-02T09:04:56;10.63;;;6.30;;
22363;SDS011;11349;53.412;-1.328;2024-03-02T09:07:22;11.93;;;5.75;;
22363;SDS011;11349;53.412;-1.328;2024-03-02T09:09:48;12.82;;;6.07;;
22363;SDS011;11349;53.412;-1.328;2024-03-02T09:12:14;13.18;;;5.55;;
22363;SDS011;11349;53.412;-1.328;2024-03-02T09:14:40;11.85;;;5.18;;
22363;SDS011;11349;53.412;-1.328;2024-03-02T09:17:06;12.35;;;4.65;;
22363;SDS011;11349;53.412;-1.328;2024-03-02T09:19:33;13.73;;;5.55;;
22363;SDS011;11349;53.412;-1.328;2024-03-02T09:21:58;11.80;;;5.45;;
22363;SDS011;11349;53.412;-1.328;2024-03-02T09:24:24;12.68;;;4.93;;
22363;SDS011;11349;53.412;-1.328;2024-03-02T09:26:50;11.38;;;4.75;;
22363;SDS011;11349;53.412;-1.328;2024-03-02T09:29:15;9.30;;;4.47;;
22363;SDS011;11349;53.412;-1.328;2024-03-02T09:31:41;17.45;;;4.90;;
22363;SDS011;11349;53.412;-1.328;2024-03-02T09:34:08;10.50;;;3.80;;
22363;SDS011;11349;53.412;-1.328;2024-03-02T09:36:34;10.32;;;3.85;;
22363;SDS011;11349;53.412;-1.328;2024-03-02T09:38:59;10.80;;;4.60;;
22363;SDS011;11349;53.412;-1.328;2024-03-02T09:41:25;13.63;;;4.80;;
22363;SDS011;11349;53.412;-1.328;2024-03-02T09:43:51;8.45;;;3.13;;
22363;SDS011;11349;53.412;-1.328;2024-03-02T09:46:17;10.88;;;3.20;;
22363;SDS011;11349;53.412;-1.328;2024-03-02T09:48:44;10.15;;;3.38;;
22363;SDS011;11349;53.412;-1.328;2024-03-02T09:51:10;9.68;;;2.92;;
22363;SDS011;11349;53.412;-1.328;2024-03-02T09:53:37;13.07;;;3.20;;
22363;SDS011;11349;53.412;-1.328;2024-03-02T09:56:03;13.63;;;4.13;;
22363;SDS011;11349;53.412;-1.328;2024-03-02T09:58:29;13.20;;;2.92;;
22363;SDS011;11349;53.412;-1.328;2024-03-02T10:00:55;12.80;;;2.97;;
22363;SDS011;11349;53.412;-1.328;2024-03-02T10:03:24;11.27;;;3.13;;
22363;SDS011;11349;53.412;-1.328;2024-03-02T10:05:51;11.88;;;3.60;;
22363;SDS011;11349;53.412;-1.328;2024-03-02T10:08:17;13.77;;;3.35;;
22363;SDS011;11349;53.412;-1.328;2024-03-02T10:10:43;11.32;;;3.25;;
22363;SDS011;11349;53.412;-1.328;2024-03-02T10:13:10;15.43;;;3.03;;
22363;SDS011;11349;53.412;-1.328;2024-03-02T10:15:36;9.18;;;2.70;;
22363;SDS011;11349;53.412;-1.328;2024-03-02T10:18:03;10.80;;;2.75;;
22363;SDS011;11349;53.412;-1.328;2024-03-02T10:20:29;15.30;;;3.53;;
22363;SDS011;11349;53.412;-1.328;2024-03-02T10:23:14;8.55;;;3.28;;
22363;SDS011;11349;53.412;-1.328;2024-03-02T10:25:41;7.60;;;2.90;;
22363;SDS011;11349;53.412;-1.328;2024-03-02T10:28:08;12.73;;;3.88;;
22363;SDS011;11349;53.412;-1.328;2024-03-02T10:30:34;17.30;;;3.72;;
22363;SDS011;11349;53.412;-1.328;2024-03-02T10:33:01;13.30;;;2.88;;
22363;SDS011;11349;53.412;-1.328;2024-03-02T10:35:27;11.43;;;4.00;;
22363;SDS011;11349;53.412;-1.328;2024-03-02T10:37:53;8.95;;;3.53;;
22363;SDS011;11349;53.412;-1.328;2024-03-02T10:40:22;9.23;;;3.05;;
22363;SDS011;11349;53.412;-1.328;2024-03-02T10:42:49;9.90;;;3.20;;
22363;SDS011;11349;53.412;-1.328;2024-03-02T10:45:16;13.82;;;3.67;;
22363;SDS011;11349;53.412;-1.328;2024-03-02T10:47:44;8.25;;;2.55;;
22363;SDS011;11349;53.412;-1.328;2024-03-02T10:50:12;15.25;;;3.65;;
22363;SDS011;11349;53.412;-1.328;2024-03-02T10:52:37;14.27;;;3.10;;
22363;SDS011;11349;53.412;-1.328;2024-03-02T10:55:07;18.23;;;3.85;;
22363;SDS011;11349;53.412;-1.328;2024-03-02T10:57:54;10.10;;;2.75;;
22363;SDS011;11349;53.412;-1.328;2024-03-02T11:00:21;14.60;;;2.90;;
22363;SDS011;11349;53.412;-1.328;2024-03-02T11:02:53;9.95;;;2.88;;
22363;SDS011;11349;53.412;-1.328;2024-03-02T11:05:24;9.00;;;3.13;;
22363;SDS011;11349;53.412;-1.328;2024-03-02T11:08:16;13.57;;;4.20;;
22363;SDS011;11349;53.412;-1.328;2024-03-02T11:10:53;13.18;;;3.72;;
22363;SDS011;11349;53.412;-1.328;2024-03-02T11:13:31;13.73;;;3.67;;
22363;SDS011;11349;53.412;-1.328;2024-03-02T11:16:12;12.00;;;3.60;;
22363;SDS011;11349;53.412;-1.328;2024-03-02T11:18:46;15.02;;;3.58;;
22363;SDS011;11349;53.412;-1.328;2024-03-02T11:21:14;21.58;;;4.15;;
22363;SDS011;11349;53.412;-1.328;2024-03-02T11:23:41;15.88;;;3.72;;
22363;SDS011;11349;53.412;-1.328;2024-03-02T11:26:17;16.98;;;3.30;;
22363;SDS011;11349;53.412;-1.328;2024-03-02T11:28:47;16.58;;;3.85;;
22363;SDS011;11349;53.412;-1.328;2024-03-02T11:31:13;18.48;;;3.75;;
22363;SDS011;11349;53.412;-1.328;2024-03-02T11:33:39;13.63;;;3.78;;
22363;SDS011;11349;53.412;-1.328;2024-03-02T11:36:08;31.42;;;4.97;;
22363;SDS011;11349;53.412;-1.328;2024-03-02T11:38:34;17.63;;;4.78;;
22363;SDS011;11349;53.412;-1.328;2024-03-02T11:41:07;14.98;;;3.42;;
22363;SDS011;11349;53.412;-1.328;2024-03-02T11:43:39;17.75;;;3.78;;
22363;SDS011;11349;53.412;-1.328;2024-03-02T11:46:07;14.88;;;3.40;;
22363;SDS011;11349;53.412;-1.328;2024-03-02T11:48:34;25.42;;;4.55;;
22363;SDS011;11349;53.412;-1.328;2024-03-02T11:51:02;14.93;;;3.35;;
22363;SDS011;11349;53.412;-1.328;2024-03-02T11:53:28;17.33;;;3.45;;
22363;SDS011;11349;53.412;-1.328;2024-03-02T11:55:55;18.55;;;4.43;;
22363;SDS011;11349;53.412;-1.328;2024-03-02T11:58:21;16.65;;;3.55;;
22363;SDS011;11349;53.412;-1.328;2024-03-02T12:00:55;18.58;;;4.95;;
22363;SDS011;11349;53.412;-1.328;2024-03-02T12:03:22;15.10;;;3.08;;
22363;SDS011;11349;53.412;-1.328;2024-03-02T12:05:50;23.23;;;3.42;;
22363;SDS011;11349;53.412;-1.328;2024-03-02T12:08:18;15.65;;;3.10;;
22363;SDS011;11349;53.412;-1.328;2024-03-02T12:10:43;15.07;;;4.05;;
22363;SDS011;11349;53.412;-1.328;2024-03-02T12:13:25;13.00;;;3.05;;
22363;SDS011;11349;53.412;-1.328;2024-03-02T12:15:52;12.95;;;2.95;;
22363;SDS011;11349;53.412;-1.328;2024-03-02T12:18:20;13.40;;;3.30;;
22363;SDS011;11349;53.412;-1.328;2024-03-02T12:20:48;10.93;;;2.55;;
22363;SDS011;11349;53.412;-1.328;2024-03-02T12:23:17;13.77;;;3.50;;
22363;SDS011;11349;53.412;-1.328;2024-03-02T12:25:43;13.98;;;3.72;;
22363;SDS011;11349;53.412;-1.328;2024-03-02T12:28:09;15.15;;;2.72;;
22363;SDS011;11349;53.412;-1.328;2024-03-02T12:30:35;14.13;;;3.22;;
22363;SDS011;11349;53.412;-1.328;2024-03-02T12:33:02;12.50;;;2.83;;
22363;SDS011;11349;53.412;-1.328;2024-03-02T12:35:29;11.45;;;2.65;;
22363;SDS011;11349;53.412;-1.328;2024-03-02T12:37:55;9.15;;;2.03;;
22363;SDS011;11349;53.412;-1.328;2024-03-02T12:40:21;7.32;;;2.28;;
22363;SDS011;11349;53.412;-1.328;2024-03-02T12:42:47;12.60;;;2.63;;
22363;SDS011;11349;53.412;-1.328;2024-03-02T12:45:15;8.80;;;2.58;;
22363;SDS011;11349;53.412;-1.328;2024-03-02T12:47:41;10.05;;;2.15;;
22363;SDS011;11349;53.412;-1.328;2024-03-02T12:50:08;9.65;;;2.88;;
22363;SDS011;11349;53.412;-1.328;2024-03-02T12:52:35;8.52;;;2.42;;
22363;SDS011;11349;53.412;-1.328;2024-03-02T12:55:01;8.07;;;2.45;;
22363;SDS011;11349;53.412;-1.328;2024-03-02T12:57:30;9.27;;;1.90;;
22363;SDS011;11349;53.412;-1.328;2024-03-02T13:00:03;7.30;;;2.47;;
22363;SDS011;11349;53.412;-1.328;2024-03-02T13:02:34;7.28;;;3.20;;
22363;SDS011;11349;53.412;-1.328;2024-03-02T13:05:01;6.45;;;2.30;;
22363;SDS011;11349;53.412;-1.328;2024-03-02T13:07:27;6.22;;;2.00;;
22363;SDS011;11349;53.412;-1.328;2024-03-02T13:09:53;5.38;;;1.88;;
22363;SDS011;11349;53.412;-1.328;2024-03-02T13:12:21;10.95;;;1.77;;
22363;SDS011;11349;53.412;-1.328;2024-03-02T13:14:48;11.15;;;2.05;;
22363;SDS011;11349;53.412;-1.328;2024-03-02T13:17:18;9.38;;;2.67;;
22363;SDS011;11349;53.412;-1.328;2024-03-02T13:20:17;11.52;;;2.33;;
22363;SDS011;11349;53.412;-1.328;2024-03-02T13:22:36;4.00;;;1.30;;
22363;SDS011;11349;53.412;-1.328;2024-03-02T13:25:02;4.85;;;0.70;;
22363;SDS011;11349;53.412;-1.328;2024-03-02T13:27:30;3.22;;;0.80;;
22363;SDS011;11349;53.412;-1.328;2024-03-02T13:29:57;2.72;;;0.70;;
22363;SDS011;11349;53.412;-1.328;2024-03-02T13:32:23;1.17;;;0.60;;
22363;SDS011;11349;53.412;-1.328;2024-03-02T13:34:51;1.70;;;0.40;;
22363;SDS011;11349;53.412;-1.328;2024-03-02T13:37:16;1.55;;;0.60;;
22363;SDS011;11349;53.412;-1.328;2024-03-02T13:39:42;2.92;;;1.27;;
22363;SDS011;11349;53.412;-1.328;2024-03-02T13:42:11;1.55;;;0.70;;
22363;SDS011;11349;53.412;-1.328;2024-03-02T13:44:39;2.92;;;0.55;;
22363;SDS011;11349;53.412;-1.328;2024-03-02T13:47:06;3.00;;;0.70;;
22363;SDS011;11349;53.412;-1.328;2024-03-02T13:49:32;1.02;;;0.47;;
22363;SDS011;11349;53.412;-1.328;2024-03-02T13:52:00;2.13;;;0.40;;
22363;SDS011;11349;53.412;-1.328;2024-03-02T13:54:28;1.90;;;0.60;;
22363;SDS011;11349;53.412;-1.328;2024-03-02T13:56:55;5.57;;;1.10;;
22363;SDS011;11349;53.412;-1.328;2024-03-02T13:59:22;1.92;;;0.70;;
22363;SDS011;11349;53.412;-1.328;2024-03-02T14:01:48;3.03;;;0.60;;
22363;SDS011;11349;53.412;-1.328;2024-03-02T14:04:14;1.98;;;0.60;;
22363;SDS011;11349;53.412;-1.328;2024-03-02T14:06:40;3.45;;;0.52;;
22363;SDS011;11349;53.412;-1.328;2024-03-02T14:09:08;1.50;;;0.30;;
22363;SDS011;11349;53.412;-1.328;2024-03-02T14:11:34;0.77;;;0.30;;
22363;SDS011;11349;53.412;-1.328;2024-03-02T14:14:00;1.45;;;0.63;;
22363;SDS011;11349;53.412;-1.328;2024-03-02T14:16:27;0.50;;;0.30;;
22363;SDS011;11349;53.412;-1.328;2024-03-02T14:18:53;0.90;;;0.52;;
22363;SDS011;11349;53.412;-1.328;2024-03-02T14:21:19;1.67;;;0.30;;
22363;SDS011;11349;53.412;-1.328;2024-03-02T14:23:44;1.30;;;0.65;;